Flight Track Log - Related Links

Times and Time Zones

All times are in EDT time to prevent confusion due to time zone crossing. See the HXA2668 flight status page for this flight to view local times or setup timezone preferences in your user account.

Time Position Orientation Groundspeed Altitude Reporting Facility
EDT Latitude Longitude Course Direction KTS MPH feet Rate Location/Type
Sat 12:17:00 AM 26.8946 119.5820 356° North  Level Estimated
Sat 12:18:00 AM 27.0544 119.5683 356° North  Level Estimated
Sat 12:19:00 AM 27.2144 119.5546 356° North  Level Estimated
Sat 12:20:00 AM 27.3743 119.5408 356° North  Level Estimated
Sat 12:21:00 AM 27.4759 119.5321 356° North  Level Estimated
Sat 12:22:00 AM 27.5774 119.5233 356° North  Level Estimated
Sat 12:23:00 AM 27.6790 119.5145 356° North  Level Estimated
Sat 12:24:00 AM 27.7806 119.5057 356° North  Level Estimated
Sat 12:25:00 AM 27.8822 119.4969 356° North  Level Estimated
Sat 12:26:00 AM 27.9838 119.4880 356° North  Level Estimated
Sat 12:27:00 AM 28.0854 119.4792 356° North  Level Estimated
Sat 12:28:00 AM 28.1870 119.4703 356° North  Level Estimated
Sat 12:29:00 AM 28.2885 119.4614 356° North  Level Estimated
Sat 12:30:00 AM 28.3901 119.4525 356° North  Level Estimated
Sat 12:31:00 AM 28.4917 119.4436 356° North  Level Estimated
Sat 12:32:00 AM 28.5933 119.4346 356° North  Level Estimated
Sat 12:33:00 AM 28.6949 119.4256 356° North  Level Estimated
Sat 12:34:00 AM 28.7964 119.4167 356° North  Level Estimated
Sat 12:35:00 AM 28.8980 119.4077 356° North  Level Estimated
Sat 12:36:00 AM 28.9996 119.3987 356° North  Level Estimated
Sat 12:37:00 AM 29.1012 119.3896 356° North  Level Estimated
Sat 12:38:00 AM 29.2027 119.3806 356° North  Level Estimated
Sat 12:39:00 AM 29.3043 119.3715 356° North  Level Estimated
Sat 12:40:00 AM 29.4059 119.3624 356° North  Level Estimated
Sat 12:41:00 AM 29.5075 119.3533 356° North  Level Estimated
Sat 12:42:00 AM 29.6091 119.3442 356° North  Level Estimated
Sat 12:43:00 AM 29.7106 119.3351 356° North  Level Estimated
Sat 12:44:00 AM 29.8122 119.3259 356° North  Level Estimated
Sat 12:45:00 AM 29.9138 119.3167 356° North  Level Estimated
Sat 12:46:00 AM 30.0153 119.3075 356° North  Level Estimated
Sat 12:47:00 AM 30.1169 119.2983 356° North  Level Estimated
Sat 12:48:00 AM 30.2185 119.2891 356° North  Level Estimated
Sat 12:49:00 AM 30.3200 119.2798 356° North  Level Estimated
Sat 12:50:00 AM 30.4216 119.2705 355° North  Level Estimated
Sat 12:51:00 AM 30.5232 119.2612 355° North  Level Estimated
Sat 12:52:00 AM 30.6248 119.2519 355° North  Level Estimated
Sat 12:53:00 AM 30.7263 119.2426 355° North  Level Estimated
Sat 12:54:00 AM 30.8279 119.2333 355° North  Level Estimated
Sat 12:55:00 AM 30.9295 119.2239 355° North  Level Estimated
Sat 12:56:00 AM 31.0310 119.2145 355° North  Level Estimated
Sat 12:57:00 AM 31.1326 119.2051 355° North  Level Estimated
Sat 12:58:00 AM 31.2341 119.1956 355° North  Level Estimated
Sat 12:59:00 AM 31.3357 119.1862 355° North  Level Estimated
Sat 01:00:00 AM 31.4373 119.1767 355° North  Level Estimated
Sat 01:01:00 AM 31.5388 119.1672 355° North  Level Estimated
Sat 01:02:00 AM 31.6404 119.1577 355° North  Level Estimated
Sat 01:03:00 AM 31.7420 119.1482 355° North  Level Estimated
Sat 01:04:00 AM 31.8435 119.1386 355° North  Level Estimated
Sat 01:05:00 AM 31.9451 119.1291 355° North  Level Estimated
Sat 01:06:00 AM 32.0466 119.1195 355° North  Level Estimated
Sat 01:07:00 AM 32.1482 119.1098 355° North  Level Estimated
Sat 01:08:00 AM 32.2498 119.1002 355° North  Level Estimated
Sat 01:09:00 AM 32.3513 119.0905 355° North  Level Estimated
Sat 01:10:00 AM 32.4529 119.0808 355° North  Level Estimated
Sat 01:11:00 AM 32.5544 119.0711 355° North  Level Estimated
Sat 01:12:00 AM 32.6560 119.0614 355° North  Level Estimated
Sat 01:13:00 AM 32.7575 119.0517 355° North  Level Estimated
Sat 01:14:00 AM 32.8591 119.0419 355° North  Level Estimated
Sat 01:15:00 AM 32.9606 119.0321 355° North  Level Estimated
Sat 01:16:00 AM 33.0622 119.0223 355° North  Level Estimated
Sat 01:17:00 AM 33.1637 119.0125 355° North  Level Estimated
Sat 01:18:00 AM 33.2653 119.0026 355° North  Level Estimated
Sat 01:19:00 AM 33.3668 118.9927 355° North  Level Estimated
Sat 01:20:00 AM 33.4684 118.9828 355° North  Level Estimated
Sat 01:21:00 AM 33.5699 118.9729 355° North  Level Estimated
Sat 01:22:00 AM 33.6715 118.9629 355° North  Level Estimated
Sat 01:23:00 AM 33.7730 118.9529 355° North  Level Estimated
Sat 01:24:00 AM 33.8746 118.9429 355° North  Level Estimated
Sat 01:25:00 AM 33.9761 118.9329 355° North  Level Estimated
Sat 01:26:00 AM 34.0776 118.9229 355° North  Level Estimated
Sat 01:27:00 AM 34.1792 118.9128 355° North  Level Estimated
Sat 01:28:00 AM 34.2807 118.9027 355° North  Level Estimated
Sat 01:29:00 AM 34.3823 118.8926 355° North  Level Estimated
Sat 01:30:00 AM 34.4838 118.8824 355° North  Level Estimated
Sat 01:31:00 AM 34.5717 118.8736 355° North  Level Estimated
Sat 01:32:00 AM 34.5717 118.8736 North  Level Estimated
Sat 01:33:00 AM 34.5717 118.8736 North  Level Estimated
Sat 01:34:00 AM 34.5717 118.8736 North  Level Estimated
Sat 01:35:00 AM 34.5717 118.8736 North  Level Estimated
Sat 01:36:00 AM 34.5717 118.8736 North  Level Estimated
Sat 01:37:00 AM 34.5717 118.8736 North  Level Estimated
Sat 01:38:00 AM 34.5717 118.8736 North  Level Estimated
Sat 01:39:00 AM 34.5717 118.8736 North  Level Estimated
Sat 01:40:00 AM 34.5717 118.8736 North  Level Estimated
Sat 01:41:00 AM 34.5717 118.8736 North  Level Estimated
Sat 01:42:00 AM 34.5717 118.8736 North  Level Estimated
Sat 01:43:00 AM 34.5717 118.8736 North  Level Estimated
Sat 01:44:00 AM 34.5717 118.8736 North  Level Estimated
Sat 01:45:00 AM 34.5717 118.8736 North  Level Estimated
Sat 01:46:00 AM 34.5717 118.8736 North  Level Estimated
Sat 01:47:00 AM 34.5717 118.8736 North  Level Estimated
Sat 01:48:00 AM 34.5717 118.8736 North  Level Estimated
Sat 01:49:00 AM 34.5717 118.8736 North  Level Estimated
Sat 01:50:00 AM 34.5717 118.8736 North  Level Estimated
Sat 01:51:00 AM 34.5717 118.8736 North  Level Estimated
Sat 01:52:00 AM 34.5717 118.8736 North  Level Estimated

Login

Don't have an account? Register now (free) for customized features, flight alerts, and more!